METAR Data
IDs: Format: Raw Decoded Include TAF

Data at: 0537 UTC 18 Oct 2018

METAR for:KRZT (Chillicothe/Ross Cnt, OH, US)
Text:KRZT 180535Z AUTO 35004KT 10SM CLR 02/M01 A3045 RMK AO2
Temperature: 2.0°C ( 36°F)
Dewpoint: -1.0°C ( 30°F) [RH = 80%]
Pressure (altimeter):30.45 inches Hg (1031.2 mb)
Winds:from the N (350 degrees) at 5 MPH (4 knots; 2.1 m/s)
Visibility:10 or more sm (16+ km)
Ceiling:at least 12,000 feet AGL
Clouds:sky clear below 12,000 feet AGL
QC Flag:automated observation with no human augmentation